createdAt,value
2018-11-12T00:01:43.746Z,98431.27
2018-11-12T00:04:13.527Z,98426.15
2018-11-12T00:06:43.365Z,98425.65
2018-11-12T00:09:13.158Z,98424.52
2018-11-12T00:11:43.057Z,98431.85
2018-11-12T00:14:12.935Z,98433.61
2018-11-12T00:16:42.770Z,98435.50
2018-11-12T00:19:12.599Z,98433.48
2018-11-12T00:21:42.445Z,98435.59
2018-11-12T00:24:12.315Z,98434.11
2018-11-12T00:26:42.170Z,98430.84
2018-11-12T00:29:12.026Z,98427.75
2018-11-12T00:31:41.856Z,98434.48
2018-11-12T00:34:11.758Z,98442.94
2018-11-12T00:36:41.518Z,98443.70
2018-11-12T00:39:12.563Z,98444.13
2018-11-12T00:41:42.758Z,98442.10
2018-11-12T00:44:12.638Z,98454.42
2018-11-12T00:46:42.430Z,98445.86
2018-11-12T00:49:12.408Z,98447.27
2018-11-12T00:51:42.295Z,98452.31
2018-11-12T00:54:12.093Z,98450.69
2018-11-12T00:56:41.887Z,98454.80
2018-11-12T00:59:11.723Z,98452.97
2018-11-12T01:01:41.504Z,98452.84
2018-11-12T01:04:11.435Z,98460.59
2018-11-12T01:06:41.163Z,98450.78
2018-11-12T01:09:11.960Z,98464.08
2018-11-12T01:11:41.942Z,98462.06
2018-11-12T01:14:11.739Z,98455.43
2018-11-12T01:16:41.496Z,98461.81
2018-11-12T01:19:11.350Z,98454.77
2018-11-12T01:21:41.278Z,98445.70
2018-11-12T01:24:11.093Z,98448.70
2018-11-12T01:26:40.850Z,98443.70
2018-11-12T01:29:11.034Z,98440.97
2018-11-12T01:31:40.893Z,98436.95
2018-11-12T01:34:10.751Z,98432.22
2018-11-12T01:36:40.540Z,98428.20
2018-11-12T01:39:11.459Z,98419.81
2018-11-12T01:41:42.342Z,98410.24
2018-11-12T01:44:12.136Z,98408.47
2018-11-12T01:46:41.902Z,98412.77
2018-11-12T01:49:12.262Z,98396.12
2018-11-12T01:51:42.059Z,98391.06
2018-11-12T01:54:11.975Z,98379.19
2018-11-12T01:56:41.827Z,98391.45
2018-11-12T01:59:11.649Z,98388.52
2018-11-12T02:01:41.481Z,98379.05
2018-11-12T02:04:11.313Z,98377.52
2018-11-12T02:06:41.274Z,98376.87
2018-11-12T02:09:12.201Z,98368.56
2018-11-12T02:11:42.270Z,98359.68
2018-11-12T02:14:12.142Z,98350.09
2018-11-12T02:16:41.931Z,98349.40
2018-11-12T02:19:11.918Z,98351.84
2018-11-12T02:21:41.761Z,98360.30
2018-11-12T02:24:11.610Z,98352.05
2018-11-12T02:26:41.556Z,98349.78
2018-11-12T02:29:11.477Z,98351.97
2018-11-12T02:31:41.305Z,98348.10
2018-11-12T02:34:11.139Z,98350.59
2018-11-12T02:36:40.966Z,98344.14
2018-11-12T02:39:11.455Z,98344.17
2018-11-12T02:41:41.345Z,98334.01
2018-11-12T02:44:11.244Z,98329.54
2018-11-12T02:46:41.006Z,98319.75
2018-11-12T02:49:10.826Z,98333.87
2018-11-12T02:51:40.644Z,98341.33
2018-11-12T02:54:10.488Z,98335.84
2018-11-12T02:56:40.262Z,98332.08
2018-11-12T02:59:10.122Z,98331.62
2018-11-12T03:01:39.899Z,98327.59
2018-11-12T03:04:09.768Z,98329.14
2018-11-12T03:06:39.656Z,98333.22
2018-11-12T03:09:11.883Z,98337.97
2018-11-12T03:11:41.939Z,98333.55
2018-11-12T03:14:11.750Z,98337.13
2018-11-12T03:16:41.527Z,98347.20
2018-11-12T03:19:11.409Z,98353.46
2018-11-12T03:21:41.165Z,98364.20
2018-11-12T03:24:10.982Z,98365.62
2018-11-12T03:26:40.799Z,98371.53
2018-11-12T03:29:10.617Z,98383.30
2018-11-12T03:31:40.403Z,98383.12
2018-11-12T03:34:10.366Z,98386.80
2018-11-12T03:36:40.167Z,98388.88
2018-11-12T03:39:11.054Z,98401.25
2018-11-12T03:41:40.910Z,98402.93
2018-11-12T03:44:10.733Z,98392.14
2018-11-12T03:46:40.542Z,98394.01
2018-11-12T03:49:10.362Z,98392.89
2018-11-12T03:51:40.152Z,98384.02
2018-11-12T03:54:09.934Z,98380.89
2018-11-12T03:56:39.763Z,98383.66
2018-11-12T03:59:09.559Z,98388.70
2018-11-12T04:01:45.517Z,98389.91
2018-11-12T04:04:16.550Z,98405.66
2018-11-12T04:06:47.062Z,98401.14
2018-11-12T04:09:16.935Z,98416.02
2018-11-12T04:11:46.738Z,98414.75
2018-11-12T04:14:16.587Z,98414.08
2018-11-12T04:16:46.381Z,98417.20
2018-11-12T04:19:16.149Z,98414.70
2018-11-12T04:21:45.974Z,98421.94
2018-11-12T04:24:15.791Z,98417.82
2018-11-12T04:26:45.625Z,98405.77
2018-11-12T04:29:15.411Z,98411.66
2018-11-12T04:31:45.239Z,98407.55
2018-11-12T04:34:15.191Z,98405.14
2018-11-12T04:36:44.984Z,98406.48
2018-11-12T04:39:14.761Z,98407.22
2018-11-12T04:41:44.602Z,98408.83
2018-11-12T04:44:14.351Z,98402.53
2018-11-12T04:46:44.255Z,98416.52
2018-11-12T04:49:14.017Z,98424.03
2018-11-12T04:51:43.858Z,98420.81
2018-11-12T04:54:13.613Z,98418.19
2018-11-12T04:56:43.483Z,98424.72
2018-11-12T04:59:13.268Z,98417.27
2018-11-12T05:01:43.203Z,98409.39
2018-11-12T05:04:12.990Z,98408.59
2018-11-12T05:06:42.758Z,98406.08
2018-11-12T05:09:12.571Z,98406.08
2018-11-12T05:11:42.398Z,98396.61
2018-11-12T05:14:12.245Z,98414.77
2018-11-12T05:16:42.112Z,98412.39
2018-11-12T05:19:11.862Z,98408.44
2018-11-12T05:21:41.711Z,98423.99
2018-11-12T05:24:11.499Z,98412.95
2018-11-12T05:26:41.396Z,98412.22
2018-11-12T05:29:11.279Z,98414.80
2018-11-12T05:31:41.067Z,98419.62
2018-11-12T05:34:10.879Z,98428.42
2018-11-12T05:36:40.682Z,98432.85
2018-11-12T05:39:13.111Z,98428.53
2018-11-12T05:41:42.978Z,98415.05
2018-11-12T05:44:12.975Z,98403.70
2018-11-12T05:46:42.818Z,98404.23
2018-11-12T05:49:12.658Z,98397.02
2018-11-12T05:51:42.652Z,98419.44
2018-11-12T05:54:12.423Z,98426.16
2018-11-12T05:56:42.288Z,98427.61
2018-11-12T05:59:12.151Z,98416.37
2018-11-12T06:01:42.020Z,98419.55
2018-11-12T06:04:11.783Z,98425.70
2018-11-12T06:06:41.851Z,98433.88
2018-11-12T06:09:12.324Z,98435.52
2018-11-12T06:11:42.176Z,98431.09
2018-11-12T06:14:12.450Z,98429.61
2018-11-12T06:16:42.299Z,98432.73
2018-11-12T06:19:12.139Z,98440.07
2018-11-12T06:21:41.952Z,98451.80
2018-11-12T06:24:11.716Z,98450.13
2018-11-12T06:26:41.581Z,98460.24
2018-11-12T06:29:11.375Z,98470.94
2018-11-12T06:31:41.352Z,98480.78
2018-11-12T06:34:11.174Z,98484.06
2018-11-12T06:36:41.031Z,98491.25
2018-11-12T06:39:10.983Z,98485.30
2018-11-12T06:41:40.859Z,98470.52
2018-11-12T06:44:10.958Z,98472.08
2018-11-12T06:46:41.150Z,98471.47
2018-11-12T06:49:11.122Z,98490.66
2018-11-12T06:51:40.910Z,98492.49
2018-11-12T06:54:10.662Z,98509.85
2018-11-12T06:56:40.543Z,98506.86
2018-11-12T06:59:10.319Z,98507.55
2018-11-12T07:01:40.154Z,98505.39
2018-11-12T07:04:09.898Z,98509.77
2018-11-12T07:06:39.683Z,98527.45
2018-11-12T07:09:11.698Z,98535.22
2018-11-12T07:11:41.941Z,98543.48
2018-11-12T07:14:17.296Z,98542.52
2018-11-12T07:17:05.492Z,98546.52
2018-11-12T07:19:40.770Z,98546.38
2018-11-12T07:22:10.546Z,98555.33
2018-11-12T07:24:40.403Z,98556.48
2018-11-12T07:27:10.242Z,98557.22
2018-11-12T07:29:40.027Z,98557.30
2018-11-12T07:32:09.872Z,98545.89
2018-11-12T07:34:39.776Z,98536.67
2018-11-12T07:37:09.574Z,98546.61
2018-11-12T07:39:39.383Z,98543.98
2018-11-12T07:42:09.300Z,98562.53
2018-11-12T07:44:39.211Z,98554.08
2018-11-12T07:47:09.323Z,98572.31
2018-11-12T07:49:39.138Z,98570.17
2018-11-12T07:52:08.987Z,98558.90
2018-11-12T07:54:38.777Z,98579.12
2018-11-12T07:57:08.662Z,98592.80
2018-11-12T07:59:38.519Z,98595.75
2018-11-12T08:02:08.460Z,98592.39
2018-11-12T08:04:38.228Z,98597.48
2018-11-12T08:07:08.090Z,98600.89
2018-11-12T08:09:37.909Z,98601.42
2018-11-12T08:12:07.657Z,98594.73
2018-11-12T08:14:37.591Z,98591.82
2018-11-12T08:17:07.282Z,98588.73
2018-11-12T08:19:37.099Z,98581.30
2018-11-12T08:22:06.989Z,98580.64
2018-11-12T08:24:36.892Z,98568.83
2018-11-12T08:27:06.694Z,98577.08
2018-11-12T08:29:36.486Z,98575.55
2018-11-12T08:32:07.090Z,98582.32
2018-11-12T08:34:36.911Z,98588.03
2018-11-12T08:37:07.304Z,98579.05
2018-11-12T08:39:37.404Z,98573.84
2018-11-12T08:42:07.128Z,98577.77
2018-11-12T08:44:37.032Z,98588.83
2018-11-12T08:47:06.941Z,98581.78
2018-11-12T08:49:36.785Z,98567.30
2018-11-12T08:52:06.795Z,98578.06
2018-11-12T08:54:36.627Z,98583.66
2018-11-12T08:57:06.631Z,98579.35
2018-11-12T08:59:36.535Z,98577.14
2018-11-12T09:02:06.699Z,98584.64
2018-11-12T09:04:36.567Z,98579.39
2018-11-12T09:07:06.531Z,98580.94
2018-11-12T09:09:36.262Z,98589.24
2018-11-12T09:12:06.067Z,98585.28
2018-11-12T09:14:35.853Z,98593.69
2018-11-12T09:17:06.010Z,98597.19
2018-11-12T09:19:35.791Z,98604.02
2018-11-12T09:22:05.821Z,98597.78
2018-11-12T09:24:35.602Z,98599.05
2018-11-12T09:27:06.084Z,98597.41
2018-11-12T09:29:35.901Z,98603.71
2018-11-12T09:32:05.802Z,98609.04
2018-11-12T09:34:35.575Z,98610.55
2018-11-12T09:37:05.578Z,98611.43
2018-11-12T09:39:35.355Z,98607.21
2018-11-12T09:42:05.434Z,98606.00
2018-11-12T09:44:35.282Z,98601.02
2018-11-12T09:47:05.142Z,98601.45
2018-11-12T09:49:34.991Z,98602.58
2018-11-12T09:52:05.431Z,98602.11
2018-11-12T09:54:35.530Z,98606.47
2018-11-12T09:57:05.418Z,98610.49
2018-11-12T09:59:35.276Z,98618.25
2018-11-12T10:02:05.536Z,98617.00
2018-11-12T10:04:35.282Z,98619.55
2018-11-12T10:07:07.161Z,98620.70
2018-11-12T10:09:36.897Z,98622.44
2018-11-12T10:12:07.377Z,98616.08
2018-11-12T10:14:38.780Z,98626.16
2018-11-12T10:17:07.902Z,98625.66
2018-11-12T10:19:35.294Z,98624.09
2018-11-12T10:22:05.310Z,98621.40
2018-11-12T10:24:35.062Z,98631.73
2018-11-12T10:27:05.024Z,98636.05
2018-11-12T10:29:34.857Z,98626.64
2018-11-12T10:32:04.753Z,98621.61
2018-11-12T10:34:34.539Z,98611.41
2018-11-12T10:37:04.419Z,98613.30
2018-11-12T10:39:34.207Z,98608.39
2018-11-12T10:42:03.970Z,98614.87
2018-11-12T10:44:34.175Z,98625.77
2018-11-12T10:47:03.974Z,98628.88
2018-11-12T10:49:33.787Z,98617.28
2018-11-12T10:52:03.817Z,98613.23
2018-11-12T10:54:33.712Z,98616.64
2018-11-12T10:57:03.574Z,98614.30
2018-11-12T10:59:33.487Z,98627.22
2018-11-12T11:02:08.562Z,98634.35
2018-11-12T11:04:38.458Z,98630.39
2018-11-12T11:07:08.287Z,98631.61
2018-11-12T11:09:38.138Z,98625.94
2018-11-12T11:12:07.922Z,98623.14
2018-11-12T11:14:37.686Z,98631.31
2018-11-12T11:17:07.542Z,98634.84
2018-11-12T11:19:37.382Z,98633.66
2018-11-12T11:22:07.346Z,98632.66
2018-11-12T11:24:37.194Z,98622.16
2018-11-12T11:27:06.991Z,98618.95
2018-11-12T11:29:36.851Z,98617.14
2018-11-12T11:32:06.883Z,98621.93
2018-11-12T11:34:36.755Z,98630.97
2018-11-12T11:37:06.763Z,98638.98
2018-11-12T11:39:36.591Z,98632.72
2018-11-12T11:42:06.606Z,98637.98
2018-11-12T11:44:36.415Z,98634.89
2018-11-12T11:47:07.065Z,98634.98
2018-11-12T11:49:36.843Z,98634.39
2018-11-12T11:52:06.738Z,98635.80
2018-11-12T11:54:36.610Z,98643.42
2018-11-12T11:57:06.491Z,98637.83
2018-11-12T11:59:36.339Z,98641.31
2018-11-12T12:02:05.893Z,98641.06
2018-11-12T12:04:35.730Z,98647.74
2018-11-12T12:07:06.321Z,98651.45
2018-11-12T12:09:36.168Z,98656.85
2018-11-12T12:12:06.564Z,98652.95
2018-11-12T12:14:36.429Z,98664.22
2018-11-12T12:17:06.362Z,98669.47
2018-11-12T12:19:36.157Z,98674.33
2018-11-12T12:22:06.022Z,98679.34
2018-11-12T12:24:35.821Z,98675.37
2018-11-12T12:27:06.146Z,98676.75
2018-11-12T12:29:36.011Z,98681.70
2018-11-12T12:32:06.131Z,98681.84
2018-11-12T12:34:36.006Z,98686.31
2018-11-12T12:37:06.027Z,98675.58
2018-11-12T12:42:21.367Z,98681.41
2018-11-12T12:44:51.289Z,98686.56
2018-11-12T12:47:22.658Z,98688.19
2018-11-12T12:49:59.711Z,98687.76
2018-11-12T12:52:30.524Z,98685.61
2018-11-12T12:55:07.290Z,98690.58
2018-11-12T12:57:40.863Z,98693.34
2018-11-12T13:00:20.663Z,98690.58
2018-11-12T13:02:50.505Z,98679.70
2018-11-12T13:05:25.030Z,98691.99
2018-11-12T13:07:54.922Z,98690.95
2018-11-12T13:10:25.207Z,98698.39
2018-11-12T13:12:55.040Z,98697.77
2018-11-12T13:15:24.863Z,98703.32
2018-11-12T13:17:56.715Z,98708.01
2018-11-12T13:20:26.624Z,98707.77
2018-11-12T13:22:56.328Z,98703.36
2018-11-12T13:25:26.297Z,98698.00
2018-11-12T13:27:57.143Z,98707.53
2018-11-12T13:30:27.175Z,98712.86
2018-11-12T13:32:57.027Z,98706.60
2018-11-12T13:35:26.882Z,98709.11
2018-11-12T13:37:56.643Z,98706.37
2018-11-12T13:40:27.375Z,98700.61
2018-11-12T13:42:58.588Z,98694.88
2018-11-12T13:45:28.926Z,98698.16
2018-11-12T13:47:59.669Z,98696.34
2018-11-12T13:50:30.755Z,98695.02
2018-11-12T13:53:01.792Z,98693.56
2018-11-12T13:55:31.543Z,98694.62
2018-11-12T13:58:01.435Z,98701.91
2018-11-12T14:00:31.727Z,98704.20
2018-11-12T14:03:01.548Z,98702.86
2018-11-12T14:05:31.416Z,98709.94
2018-11-12T14:08:01.287Z,98718.64
2018-11-12T14:10:31.569Z,98718.75
2018-11-12T14:13:01.583Z,98705.59
2018-11-12T14:15:31.361Z,98706.26
2018-11-12T14:18:01.268Z,98710.34
2018-11-12T14:20:31.190Z,98703.55
2018-11-12T14:23:00.867Z,98706.02
2018-11-12T14:25:30.634Z,98716.09
2018-11-12T14:28:00.437Z,98714.47
2018-11-12T14:30:31.094Z,98716.19
2018-11-12T14:33:00.915Z,98723.09
2018-11-12T14:35:30.770Z,98725.98
2018-11-12T14:38:00.539Z,98723.20
2018-11-12T14:40:30.386Z,98726.80
2018-11-12T14:43:00.334Z,98723.92
2018-11-12T14:45:30.190Z,98716.74
2018-11-12T14:48:00.154Z,98724.19
2018-11-12T14:50:30.079Z,98728.22
2018-11-12T14:53:00.012Z,98732.06
2018-11-12T14:55:29.886Z,98737.98
2018-11-12T14:57:59.711Z,98724.67
2018-11-12T15:00:30.394Z,98720.03
2018-11-12T15:03:00.427Z,98724.95
2018-11-12T15:05:30.267Z,98722.25
2018-11-12T15:08:00.075Z,98723.47
2018-11-12T15:10:29.979Z,98729.28
2018-11-12T15:12:59.806Z,98732.48
2018-11-12T15:15:29.735Z,98725.07
2018-11-12T15:17:59.646Z,98711.42
2018-11-12T15:20:29.530Z,98720.11
2018-11-12T15:22:59.367Z,98722.65
2018-11-12T15:25:29.150Z,98722.16
2018-11-12T15:27:58.950Z,98720.81
2018-11-12T15:30:28.828Z,98721.27
2018-11-12T15:32:58.695Z,98719.06
2018-11-12T15:35:28.547Z,98722.58
2018-11-12T15:37:58.494Z,98727.93
2018-11-12T15:40:28.362Z,98728.78
2018-11-12T15:42:58.219Z,98735.84
2018-11-12T15:45:28.150Z,98736.48
2018-11-12T15:47:57.979Z,98741.64
2018-11-12T15:50:31.650Z,98755.84
2018-11-12T15:53:01.504Z,98750.80
2018-11-12T15:55:31.299Z,98747.04
2018-11-12T15:58:01.214Z,98745.23
2018-11-12T16:00:31.079Z,98740.50
2018-11-12T16:03:00.950Z,98745.94
2018-11-12T16:05:30.801Z,98749.94
2018-11-12T16:08:00.595Z,98749.89
2018-11-12T16:10:39.464Z,98752.45
2018-11-12T16:13:09.684Z,98755.22
2018-11-12T16:15:41.811Z,98756.12
2018-11-12T16:18:12.062Z,98758.55
2018-11-12T16:20:42.282Z,98765.83
2018-11-12T16:23:13.328Z,98756.73
2018-11-12T16:25:43.584Z,98755.11
2018-11-12T16:28:14.081Z,98768.73
2018-11-12T16:30:44.021Z,98769.22
2018-11-12T16:33:13.897Z,98775.61
2018-11-12T16:35:43.854Z,98776.11
2018-11-12T16:38:13.751Z,98778.24
2018-11-12T16:40:43.603Z,98780.84
2018-11-12T16:43:13.770Z,98774.34
2018-11-12T16:45:43.707Z,98774.31
2018-11-12T16:48:13.483Z,98779.86
2018-11-12T16:50:43.474Z,98779.09
2018-11-12T16:53:13.339Z,98787.13
2018-11-12T16:55:43.325Z,98793.72
2018-11-12T16:58:13.913Z,98804.37
2018-11-12T17:00:43.841Z,98798.29
2018-11-12T17:03:14.206Z,98799.89
2018-11-12T17:05:44.020Z,98798.27
2018-11-12T17:08:14.451Z,98805.56
2018-11-12T17:10:44.322Z,98806.49
2018-11-12T17:13:14.210Z,98806.00
2018-11-12T17:15:44.141Z,98812.04
2018-11-12T17:18:13.909Z,98810.61
2018-11-12T17:20:43.826Z,98811.70
2018-11-12T17:23:13.968Z,98825.83
2018-11-12T17:25:43.822Z,98827.04
2018-11-12T17:28:13.718Z,98827.96
2018-11-12T17:30:43.591Z,98841.20
2018-11-12T17:33:13.721Z,98845.37
2018-11-12T17:35:43.672Z,98838.09
2018-11-12T17:38:13.647Z,98841.52
2018-11-12T17:40:43.526Z,98848.67
2018-11-12T17:43:13.564Z,98847.81
2018-11-12T17:45:43.367Z,98850.19
2018-11-12T17:48:13.270Z,98850.48
2018-11-12T17:50:43.073Z,98851.81
2018-11-12T17:53:12.970Z,98853.38
2018-11-12T17:55:42.944Z,98859.96
2018-11-12T17:58:12.726Z,98858.06
2018-11-12T18:00:42.543Z,98861.44
2018-11-12T18:03:12.406Z,98855.97
2018-11-12T18:05:42.392Z,98871.06
2018-11-12T18:08:12.350Z,98870.89
2018-11-12T18:10:42.223Z,98869.21
2018-11-12T18:13:12.119Z,98873.66
2018-11-12T18:15:42.022Z,98884.30
2018-11-12T18:18:11.924Z,98881.49
2018-11-12T18:20:41.798Z,98881.62
2018-11-12T18:23:11.800Z,98877.36
2018-11-12T18:25:41.554Z,98876.41
2018-11-12T18:28:11.420Z,98883.95
2018-11-12T18:30:41.631Z,98880.36
2018-11-12T18:33:11.287Z,98881.76
2018-11-12T18:35:41.187Z,98881.78
2018-11-12T18:38:11.164Z,98880.67
2018-11-12T18:40:41.676Z,98886.91
2018-11-12T18:43:12.106Z,98878.66
2018-11-12T18:45:42.024Z,98879.70
2018-11-12T18:48:11.865Z,98869.53
2018-11-12T18:50:42.206Z,98877.70
2018-11-12T18:53:12.366Z,98884.47
2018-11-12T18:55:42.133Z,98867.84
2018-11-12T18:58:12.237Z,98868.06
2018-11-12T19:00:42.039Z,98867.70
2018-11-12T19:03:11.918Z,98871.69
2018-11-12T19:05:41.909Z,98869.84
2018-11-12T19:08:11.890Z,98874.45
2018-11-12T19:10:41.746Z,98868.98
2018-11-12T19:13:11.549Z,98868.55
2018-11-12T19:15:41.439Z,98871.93
2018-11-12T19:18:12.907Z,98865.64
2018-11-12T19:20:44.016Z,98867.70
2018-11-12T19:23:14.013Z,98862.27
2018-11-12T19:25:43.834Z,98863.14
2018-11-12T19:28:13.666Z,98858.78
2018-11-12T19:30:43.474Z,98867.02
2018-11-12T19:33:14.011Z,98865.20
2018-11-12T19:35:43.927Z,98862.62
2018-11-12T19:38:13.754Z,98873.02
2018-11-12T19:40:44.546Z,98873.66
2018-11-12T19:43:14.519Z,98869.50
2018-11-12T19:45:44.324Z,98875.16
2018-11-12T19:48:14.166Z,98875.92
2018-11-12T19:50:44.827Z,98879.77
2018-11-12T19:53:14.710Z,98880.87
2018-11-12T19:55:44.603Z,98887.82
2018-11-12T19:58:14.626Z,98889.80
2018-11-12T20:00:44.515Z,98892.36
2018-11-12T20:03:14.362Z,98885.77
2018-11-12T20:05:44.324Z,98891.70
2018-11-12T20:08:14.300Z,98898.58
2018-11-12T20:10:44.209Z,98899.16
2018-11-12T20:13:14.072Z,98906.72
2018-11-12T20:15:43.887Z,98902.19
2018-11-12T20:18:13.726Z,98907.98
2018-11-12T20:20:43.608Z,98911.53
2018-11-12T20:23:13.506Z,98910.51
2018-11-12T20:25:43.539Z,98891.33
2018-11-12T20:28:13.384Z,98892.23
2018-11-12T20:30:43.226Z,98890.12
2018-11-12T20:33:13.160Z,98888.13
2018-11-12T20:35:43.007Z,98886.84
2018-11-12T20:38:14.627Z,98894.31
2018-11-12T20:40:44.456Z,98906.06
2018-11-12T20:43:14.311Z,98907.23
2018-11-12T20:45:44.095Z,98907.42
2018-11-12T20:48:13.987Z,98909.66
2018-11-12T20:50:43.803Z,98912.75
2018-11-12T20:53:13.691Z,98896.52
2018-11-12T20:55:44.110Z,98899.09
2018-11-12T20:58:13.939Z,98897.03
2018-11-12T21:00:44.067Z,98902.63
2018-11-12T21:03:13.879Z,98900.04
2018-11-12T21:05:43.752Z,98901.28
2018-11-12T21:08:13.565Z,98904.74
2018-11-12T21:10:43.387Z,98902.34
2018-11-12T21:13:13.340Z,98907.44
2018-11-12T21:15:43.217Z,98905.98
2018-11-12T21:18:13.173Z,98906.28
2018-11-12T21:20:43.022Z,98910.16
2018-11-12T21:23:12.894Z,98904.44
2018-11-12T21:25:42.759Z,98910.43
2018-11-12T21:28:12.771Z,98913.66
2018-11-12T21:30:43.438Z,98912.22
2018-11-12T21:33:13.465Z,98915.89
2018-11-12T21:35:43.570Z,98916.24
2018-11-12T21:38:14.190Z,98916.89
2018-11-12T21:40:45.091Z,98917.52
2018-11-12T21:43:15.654Z,98915.10
2018-11-12T21:45:45.553Z,98916.83
2018-11-12T21:48:15.704Z,98916.95
2018-11-12T21:50:45.674Z,98913.92
2018-11-12T21:53:15.831Z,98912.47
2018-11-12T21:55:45.938Z,98913.09
2018-11-12T21:58:16.576Z,98918.45
2018-11-12T22:00:46.735Z,98912.86
2018-11-12T22:03:16.614Z,98921.18
2018-11-12T22:05:46.442Z,98924.70
2018-11-12T22:08:16.374Z,98925.70
2018-11-12T22:10:46.247Z,98924.98
2018-11-12T22:13:16.126Z,98929.38
2018-11-12T22:15:45.958Z,98924.02
2018-11-12T22:18:16.891Z,98931.19
2018-11-12T22:20:46.719Z,98936.33
2018-11-12T22:23:16.558Z,98934.64
2018-11-12T22:25:46.405Z,98936.09
2018-11-12T22:28:17.104Z,98926.70
2018-11-12T22:30:46.919Z,98936.09
2018-11-12T22:33:16.812Z,98941.08
2018-11-12T22:35:46.632Z,98944.14
2018-11-12T22:38:16.457Z,98945.52
2018-11-12T22:40:46.819Z,98945.52
2018-11-12T22:43:16.752Z,98942.41
2018-11-12T22:45:46.600Z,98940.84
2018-11-12T22:48:16.408Z,98948.42
2018-11-12T22:50:46.211Z,98946.48
2018-11-12T22:53:16.049Z,98945.98
2018-11-12T22:55:46.933Z,98944.52
2018-11-12T22:58:17.529Z,98949.16
2018-11-12T23:00:48.266Z,98951.77
2018-11-12T23:03:18.210Z,98962.62
2018-11-12T23:05:48.034Z,98965.69
2018-11-12T23:08:17.878Z,98979.64
2018-11-12T23:10:47.679Z,98987.08
2018-11-12T23:13:17.475Z,98985.50
2018-11-12T23:15:47.292Z,98987.84
2018-11-12T23:18:17.139Z,98999.70
2018-11-12T23:20:46.914Z,99000.46
2018-11-12T23:23:16.741Z,98991.22
2018-11-12T23:25:46.551Z,98999.27
2018-11-12T23:28:16.426Z,99000.13
2018-11-12T23:30:46.275Z,98995.05
2018-11-12T23:33:16.101Z,98996.89
2018-11-12T23:35:45.900Z,98995.92
2018-11-12T23:38:15.716Z,98993.36
2018-11-12T23:40:45.527Z,98998.25
2018-11-12T23:43:15.382Z,98989.59
2018-11-12T23:45:45.242Z,98995.94
2018-11-12T23:48:15.150Z,98992.41
2018-11-12T23:50:44.970Z,98998.37
2018-11-12T23:53:14.834Z,99005.07
2018-11-12T23:55:44.716Z,99005.41
2018-11-12T23:58:14.583Z,99001.63
